Ford, Kentucky
Current Conditions -  °F | °C
As of 3:55 PM on Friday 31 Oct 2014 (Local Time) from KI39 Reporting Station
Overcast Overcast  
Wind Chill: 38°   Ceiling: 900
Heat Index: 45°   Visibility: 3mi
Dew Point: 41°   Wind: 14mph
Humidity: 87%   Direction: 290°WNW
Pressure: 29.89"   Gusts: 18mph
Location:  37.88°N, 84.26°W
Report Text: KI39 311955Z AUTO 29012G16KT 3SM BKN009 BKN016 OVC026 07/05 A2989 RMK AO2
Loading
Personal Weather Stations






























Interactive Weather Map
Tropical Storm Tracking
New forecast layout! Learn more

10-Day Weather Forecast

Advertisements
Track Severe Weather on mobile